Armstrong Creek, Wisconsin
Current Conditions -  °F | °C
As of 11:54 AM on Friday 21 Nov 2014 (Local Time) from KIMT Reporting Station
Overcast Overcast  
Wind Chill:   Ceiling: 11000
Heat Index: 19°   Visibility: 10mi
Dew Point:   Wind: 14mph
Humidity: 46%   Direction: 190°S
Pressure: 30.19"   Gusts: NA
Location:  45.66°N, 88.45°W
Report Text: KIMT 211754Z AUTO 19012KT 10SM OVC110 M07/M17 A3019 RMK AO2 SLP250 T10721172 11072 21161 58019
Loading
Personal Weather Stations






























Interactive Weather Map New forecast layout! Learn more

10-Day Weather Forecast

Advertisements
Track Severe Weather on mobile